Time,TemperatureF,DewpointF,PressureIn,WindDirection,WindDirectionDegrees,WindSpeedMPH,WindSpeedGustMPH,Humidity,HourlyPrecipIn,Conditions,Clouds,dailyrainin,SoftwareType,DateUTC
2013-02-06 00:00:00,16.3,7.3,29.87,ENE,68,0.0,0.0,67,0.00,,---,0.00,VWS V14.01,2013-02-06 05:00:00,
2013-02-06 00:05:00,16.3,7.3,29.86,ENE,68,0.0,0.0,67,0.00,,---,0.00,VWS V14.01,2013-02-06 05:05:00,
2013-02-06 00:10:00,16.3,7.3,29.87,ENE,68,0.0,0.0,67,0.00,,---,0.00,VWS V14.01,2013-02-06 05:10:00,
2013-02-06 00:15:00,16.3,7.6,29.86,ENE,68,0.0,0.0,68,0.00,,---,0.00,VWS V14.01,2013-02-06 05:15:00,
2013-02-06 00:20:00,16.3,7.6,29.86,ENE,68,0.0,0.0,68,0.00,,---,0.00,VWS V14.01,2013-02-06 05:20:00,
2013-02-06 00:25:00,16.1,7.4,29.86,ENE,68,0.0,0.0,68,0.00,,---,0.00,VWS V14.01,2013-02-06 05:25:00,
2013-02-06 00:30:00,16.1,7.4,29.86,ENE,68,0.0,0.0,68,0.00,,---,0.00,VWS V14.01,2013-02-06 05:30:00,
2013-02-06 00:35:00,16.1,7.4,29.87,ENE,68,0.0,0.0,68,0.00,,---,0.00,VWS V14.01,2013-02-06 05:35:00,
2013-02-06 00:40:00,16.1,7.4,29.86,ENE,68,0.0,0.0,68,0.00,,---,0.00,VWS V14.01,2013-02-06 05:40:00,
2013-02-06 00:45:00,16.1,7.4,29.86,ENE,68,0.0,0.0,68,0.00,,---,0.00,VWS V14.01,2013-02-06 05:45:00,
2013-02-06 00:50:00,16.1,7.4,29.86,ENE,68,0.0,0.0,68,0.00,,---,0.00,VWS V14.01,2013-02-06 05:50:00,
2013-02-06 00:55:00,16.1,7.4,29.86,ENE,68,0.0,0.0,68,0.00,,---,0.00,VWS V14.01,2013-02-06 05:55:00,
2013-02-06 01:00:00,16.1,7.4,29.87,ENE,68,0.0,0.0,68,0.00,,---,0.00,VWS V14.01,2013-02-06 06:00:00,
2013-02-06 01:05:00,15.9,7.2,29.87,ENE,68,0.0,0.0,68,0.00,,---,0.00,VWS V14.01,2013-02-06 06:05:00,
2013-02-06 01:10:00,15.9,7.2,29.87,ENE,68,0.0,0.0,68,0.00,,---,0.00,VWS V14.01,2013-02-06 06:10:00,
2013-02-06 01:15:00,15.9,7.5,29.87,ENE,68,0.0,0.0,69,0.00,,---,0.00,VWS V14.01,2013-02-06 06:15:00,
2013-02-06 01:20:00,15.9,7.5,29.87,ENE,68,0.0,0.0,69,0.00,,---,0.00,VWS V14.01,2013-02-06 06:20:00,
2013-02-06 01:25:00,15.9,7.5,29.87,ENE,68,0.0,0.0,69,0.00,,---,0.00,VWS V14.01,2013-02-06 06:25:00,
2013-02-06 01:30:00,15.9,7.5,29.87,ENE,68,0.0,0.0,69,0.00,,---,0.00,VWS V14.01,2013-02-06 06:30:00,
2013-02-06 01:35:00,15.9,7.5,29.87,ENE,68,0.0,0.0,69,0.00,,---,0.00,VWS V14.01,2013-02-06 06:35:00,
2013-02-06 01:40:00,15.9,7.5,29.87,ENE,68,0.0,0.0,69,0.00,,---,0.00,VWS V14.01,2013-02-06 06:40:00,
2013-02-06 01:45:00,15.8,7.4,29.87,ENE,68,0.0,0.0,69,0.00,,---,0.00,VWS V14.01,2013-02-06 06:45:00,
2013-02-06 01:50:00,15.8,7.4,29.87,ENE,68,0.0,0.0,69,0.00,,---,0.00,VWS V14.01,2013-02-06 06:50:00,
2013-02-06 01:55:00,15.9,7.5,29.87,ENE,68,0.0,0.0,69,0.00,,---,0.00,VWS V14.01,2013-02-06 06:55:00,
2013-02-06 02:00:00,15.9,7.9,29.87,ENE,68,0.0,0.0,70,0.00,,---,0.00,VWS V14.01,2013-02-06 07:00:00,
2013-02-06 02:05:00,15.9,7.9,29.86,ENE,68,0.0,0.0,70,0.00,,---,0.00,VWS V14.01,2013-02-06 07:05:00,
2013-02-06 02:10:00,15.9,7.9,29.87,ENE,68,0.0,0.0,70,0.00,,---,0.00,VWS V14.01,2013-02-06 07:10:00,
2013-02-06 02:15:00,16.1,8.4,29.87,ENE,68,0.0,0.0,71,0.00,,---,0.00,VWS V14.01,2013-02-06 07:15:00,
2013-02-06 02:20:00,16.1,8.4,29.87,ENE,68,0.0,0.0,71,0.00,,---,0.00,VWS V14.01,2013-02-06 07:20:00,
2013-02-06 02:25:00,16.3,8.6,29.87,ENE,68,0.0,0.0,71,0.00,,---,0.00,VWS V14.01,2013-02-06 07:25:00,
2013-02-06 02:30:00,16.3,8.6,29.86,ENE,68,0.0,0.0,71,0.00,,---,0.00,VWS V14.01,2013-02-06 07:30:00,
2013-02-06 02:35:00,16.3,8.6,29.86,ENE,68,0.0,0.0,71,0.00,,---,0.00,VWS V14.01,2013-02-06 07:35:00,
2013-02-06 02:40:00,16.3,8.6,29.86,ENE,68,0.0,0.0,71,0.00,,---,0.00,VWS V14.01,2013-02-06 07:40:00,
2013-02-06 02:45:00,16.3,8.6,29.87,ENE,68,0.0,0.0,71,0.00,,---,0.00,VWS V14.01,2013-02-06 07:45:00,
2013-02-06 02:50:00,16.3,8.6,29.86,ENE,68,0.0,0.0,71,0.00,,---,0.00,VWS V14.01,2013-02-06 07:50:00,
2013-02-06 02:55:00,16.3,8.9,29.86,ENE,68,0.0,0.0,72,0.00,,---,0.00,VWS V14.01,2013-02-06 07:55:00,
2013-02-06 03:00:00,16.3,8.9,29.86,NE,45,0.0,0.0,72,0.00,,---,0.00,VWS V14.01,2013-02-06 08:00:00,
2013-02-06 03:05:00,16.5,9.1,29.87,NE,45,0.0,0.0,72,0.00,,---,0.00,VWS V14.01,2013-02-06 08:05:00,
2013-02-06 03:10:00,16.5,9.4,29.86,NE,45,0.0,0.0,73,0.00,,---,0.00,VWS V14.01,2013-02-06 08:10:00,
2013-02-06 03:15:00,16.5,9.4,29.86,NE,45,0.0,0.0,73,0.00,,---,0.00,VWS V14.01,2013-02-06 08:15:00,
2013-02-06 03:20:00,16.7,9.6,29.86,NE,45,0.0,0.0,73,0.00,,---,0.00,VWS V14.01,2013-02-06 08:20:00,
2013-02-06 03:25:00,16.7,9.6,29.86,NNE,22,0.0,0.0,73,0.00,,---,0.00,VWS V14.01,2013-02-06 08:25:00,
2013-02-06 03:30:00,16.7,9.6,29.86,NNE,22,0.0,0.0,73,0.00,,---,0.00,VWS V14.01,2013-02-06 08:30:00,
2013-02-06 03:35:00,16.8,9.7,29.86,NNE,22,0.0,0.0,73,0.00,,---,0.00,VWS V14.01,2013-02-06 08:35:00,
2013-02-06 03:40:00,16.8,10.0,29.86,North,0,0.0,0.0,74,0.00,,---,0.00,VWS V14.01,2013-02-06 08:40:00,
2013-02-06 03:45:00,16.8,10.0,29.87,North,0,0.0,0.0,74,0.00,,---,0.00,VWS V14.01,2013-02-06 08:45:00,
2013-02-06 03:50:00,16.8,10.0,29.87,North,0,0.0,0.0,74,0.00,,---,0.00,VWS V14.01,2013-02-06 08:50:00,
2013-02-06 03:55:00,17.2,10.4,29.87,North,0,0.0,0.0,74,0.00,,---,0.00,VWS V14.01,2013-02-06 08:55:00,
2013-02-06 04:00:00,17.2,10.4,29.87,North,0,0.0,0.0,74,0.00,,---,0.00,VWS V14.01,2013-02-06 09:00:00,
2013-02-06 04:05:00,17.2,10.4,29.88,North,0,0.0,0.0,74,0.00,,---,0.00,VWS V14.01,2013-02-06 09:05:00,
2013-02-06 04:10:00,17.4,10.6,29.88,North,0,0.0,0.0,74,0.00,,---,0.00,VWS V14.01,2013-02-06 09:10:00,
2013-02-06 04:15:00,17.4,10.6,29.88,North,0,0.0,0.0,74,0.00,,---,0.00,VWS V14.01,2013-02-06 09:15:00,
2013-02-06 04:20:00,17.4,10.9,29.89,NNW,338,0.0,0.0,75,0.00,,---,0.00,VWS V14.01,2013-02-06 09:20:00,
2013-02-06 04:25:00,17.4,10.9,29.89,North,0,0.0,0.0,75,0.00,,---,0.00,VWS V14.01,2013-02-06 09:25:00,
2013-02-06 04:30:00,17.4,10.9,29.88,NNW,338,0.0,0.0,75,0.00,,---,0.00,VWS V14.01,2013-02-06 09:30:00,
2013-02-06 04:35:00,17.6,11.0,29.89,NNW,338,0.0,0.0,75,0.00,,---,0.00,VWS V14.01,2013-02-06 09:35:00,
2013-02-06 04:40:00,17.7,11.1,29.88,NNW,338,0.0,0.0,75,0.00,,---,0.00,VWS V14.01,2013-02-06 09:40:00,
2013-02-06 04:45:00,17.7,11.1,29.88,NE,45,0.0,0.0,75,0.00,,---,0.00,VWS V14.01,2013-02-06 09:45:00,
2013-02-06 04:50:00,17.7,11.1,29.88,NE,45,0.0,0.0,75,0.00,,---,0.00,VWS V14.01,2013-02-06 09:50:00,
2013-02-06 04:55:00,17.9,11.3,29.88,NE,45,0.0,0.0,75,0.00,,---,0.00,VWS V14.01,2013-02-06 09:55:00,
2013-02-06 05:00:00,17.9,11.3,29.88,ESE,112,0.0,0.0,75,0.00,,---,0.00,VWS V14.01,2013-02-06 10:00:00,
2013-02-06 05:06:00,17.9,11.3,29.89,South,180,0.0,0.0,75,0.00,,---,0.00,VWS V14.01,2013-02-06 10:06:00,
2013-02-06 05:11:00,18.1,11.5,29.89,NNW,338,0.0,0.0,75,0.00,,---,0.00,VWS V14.01,2013-02-06 10:11:00,
2013-02-06 05:16:00,18.3,11.7,29.89,WNW,292,0.0,0.0,75,0.00,,---,0.00,VWS V14.01,2013-02-06 10:16:00,
2013-02-06 05:21:00,18.3,11.7,29.89,NE,45,0.0,0.0,75,0.00,,---,0.00,VWS V14.01,2013-02-06 10:21:00,
2013-02-06 05:26:00,18.3,11.7,29.89,NW,315,0.0,0.0,75,0.00,,---,0.00,VWS V14.01,2013-02-06 10:26:00,
2013-02-06 05:31:00,18.3,11.7,29.89,ESE,112,0.0,0.0,75,0.00,,---,0.00,VWS V14.01,2013-02-06 10:31:00,
2013-02-06 05:36:00,18.5,11.9,29.89,SE,135,0.0,0.0,75,0.00,,---,0.00,VWS V14.01,2013-02-06 10:36:00,
2013-02-06 05:41:00,18.5,11.9,29.89,SE,135,0.0,0.0,75,0.00,,---,0.00,VWS V14.01,2013-02-06 10:41:00,
2013-02-06 05:46:00,18.5,11.9,29.89,SE,135,0.0,0.0,75,0.00,,---,0.00,VWS V14.01,2013-02-06 10:46:00,
2013-02-06 05:51:00,18.6,12.3,29.89,SE,135,6.7,6.7,76,0.00,,---,0.00,VWS V14.01,2013-02-06 10:51:00,
2013-02-06 05:56:00,18.6,12.3,29.89,West,270,0.0,0.0,76,0.00,,---,0.00,VWS V14.01,2013-02-06 10:56:00,
2013-02-06 06:01:00,18.8,12.5,29.89,SSE,158,0.0,0.0,76,0.00,,---,0.00,VWS V14.01,2013-02-06 11:01:00,
2013-02-06 06:06:00,18.8,12.5,29.90,South,180,0.0,0.0,76,0.00,,---,0.00,VWS V14.01,2013-02-06 11:06:00,
2013-02-06 06:11:00,18.8,12.5,29.90,North,0,0.0,0.0,76,0.00,,---,0.00,VWS V14.01,2013-02-06 11:11:00,
2013-02-06 06:16:00,19.0,12.7,29.89,NW,315,0.0,0.0,76,0.00,,---,0.00,VWS V14.01,2013-02-06 11:16:00,
2013-02-06 06:21:00,19.0,12.7,29.90,North,0,0.0,0.0,76,0.00,,---,0.00,VWS V14.01,2013-02-06 11:21:00,
2013-02-06 06:26:00,19.0,13.0,29.91,North,0,0.0,0.0,77,0.00,,---,0.00,VWS V14.01,2013-02-06 11:26:00,
2013-02-06 06:31:00,19.0,13.0,29.91,NW,315,0.0,0.0,77,0.00,,---,0.00,VWS V14.01,2013-02-06 11:31:00,
2013-02-06 06:36:00,19.2,13.2,29.91,WNW,292,0.0,0.0,77,0.00,,---,0.00,VWS V14.01,2013-02-06 11:36:00,
2013-02-06 06:41:00,19.2,13.2,29.91,NNW,338,0.0,0.0,77,0.00,,---,0.00,VWS V14.01,2013-02-06 11:41:00,
2013-02-06 06:46:00,19.2,13.2,29.91,NNW,338,0.0,0.0,77,0.00,,---,0.00,VWS V14.01,2013-02-06 11:46:00,
2013-02-06 06:51:00,19.2,13.2,29.91,NW,315,0.0,0.0,77,0.00,,---,0.00,VWS V14.01,2013-02-06 11:51:00,
2013-02-06 06:56:00,19.2,13.2,29.91,NW,315,0.0,0.0,77,0.00,,---,0.00,VWS V14.01,2013-02-06 11:56:00,
2013-02-06 07:01:00,19.2,13.5,29.91,NNW,338,0.0,0.0,78,0.00,,---,0.00,VWS V14.01,2013-02-06 12:01:00,
2013-02-06 07:06:00,19.2,13.5,29.91,NNW,338,0.0,0.0,78,0.00,,---,0.00,VWS V14.01,2013-02-06 12:06:00,
2013-02-06 07:11:00,19.2,13.5,29.92,NW,315,0.0,0.0,78,0.00,,---,0.00,VWS V14.01,2013-02-06 12:11:00,
2013-02-06 07:16:00,19.2,13.5,29.92,North,0,0.0,0.0,78,0.00,,---,0.00,VWS V14.01,2013-02-06 12:16:00,
2013-02-06 07:21:00,19.2,13.5,29.93,WNW,292,0.0,0.0,78,0.00,,---,0.00,VWS V14.01,2013-02-06 12:21:00,
2013-02-06 07:26:00,19.2,13.5,29.93,NNE,22,0.0,0.0,78,0.00,,---,0.00,VWS V14.01,2013-02-06 12:26:00,
2013-02-06 07:31:00,19.2,13.5,29.93,North,0,0.0,0.0,78,0.00,,---,0.00,VWS V14.01,2013-02-06 12:31:00,
2013-02-06 07:36:00,19.4,13.7,29.93,North,0,0.0,0.0,78,0.00,,---,0.00,VWS V14.01,2013-02-06 12:36:00,
2013-02-06 07:41:00,19.4,13.7,29.93,West,270,0.0,0.0,78,0.00,,---,0.00,VWS V14.01,2013-02-06 12:41:00,
2013-02-06 07:46:00,19.4,13.7,29.93,NNW,338,0.0,0.0,78,0.00,,---,0.00,VWS V14.01,2013-02-06 12:46:00,
2013-02-06 07:51:00,19.5,13.8,29.94,NW,315,0.0,0.0,78,0.00,,---,0.00,VWS V14.01,2013-02-06 12:51:00,
2013-02-06 07:56:00,19.5,14.1,29.94,NNW,338,0.0,0.0,79,0.00,,---,0.00,VWS V14.01,2013-02-06 12:56:00,
2013-02-06 08:01:00,19.5,14.1,29.94,NNW,338,3.8,3.8,79,0.00,,---,0.00,VWS V14.01,2013-02-06 13:01:00,
2013-02-06 08:06:00,19.5,14.1,29.94,ENE,68,0.0,0.0,79,0.00,,---,0.00,VWS V14.01,2013-02-06 13:06:00,
2013-02-06 08:11:00,19.5,14.1,29.95,WNW,292,0.0,0.0,79,0.00,,---,0.00,VWS V14.01,2013-02-06 13:11:00,
2013-02-06 08:16:00,19.9,14.4,29.95,NNW,338,0.0,0.0,79,0.00,,---,0.00,VWS V14.01,2013-02-06 13:16:00,
2013-02-06 08:21:00,19.7,14.3,29.95,NNW,338,0.0,0.0,79,0.00,,---,0.00,VWS V14.01,2013-02-06 13:21:00,
2013-02-06 08:26:00,19.9,14.7,29.95,NW,315,0.0,0.0,80,0.00,,---,0.00,VWS V14.01,2013-02-06 13:26:00,
2013-02-06 08:31:00,19.9,14.7,29.94,WNW,292,0.0,0.0,80,0.00,,---,0.00,VWS V14.01,2013-02-06 13:31:00,
2013-02-06 08:36:00,19.9,14.7,29.95,NW,315,0.0,0.0,80,0.00,,---,0.00,VWS V14.01,2013-02-06 13:36:00,
2013-02-06 08:41:00,19.9,14.7,29.95,WNW,292,0.0,0.0,80,0.00,,---,0.00,VWS V14.01,2013-02-06 13:41:00,
2013-02-06 08:46:00,20.1,14.9,29.95,NNW,338,0.0,0.0,80,0.00,,---,0.00,VWS V14.01,2013-02-06 13:46:00,
2013-02-06 08:51:00,20.4,15.2,29.95,NNW,338,0.0,0.0,80,0.00,,---,0.00,VWS V14.01,2013-02-06 13:51:00,
2013-02-06 08:56:00,20.4,15.2,29.96,NW,315,0.0,0.0,80,0.00,,---,0.00,VWS V14.01,2013-02-06 13:56:00,
2013-02-06 09:01:00,20.4,15.2,29.96,West,270,0.0,0.0,80,0.00,,---,0.00,VWS V14.01,2013-02-06 14:01:00,
2013-02-06 09:06:00,20.8,15.6,29.96,NNW,338,0.0,0.0,80,0.00,,---,0.00,VWS V14.01,2013-02-06 14:06:00,
2013-02-06 09:11:00,20.8,15.6,29.96,NNW,338,0.0,0.0,80,0.00,,---,0.00,VWS V14.01,2013-02-06 14:11:00,
2013-02-06 09:16:00,21.0,15.8,29.96,NNW,338,3.8,3.8,80,0.00,,---,0.00,VWS V14.01,2013-02-06 14:16:00,
2013-02-06 09:21:00,21.0,15.8,29.97,NNW,338,0.0,0.0,80,0.00,,---,0.00,VWS V14.01,2013-02-06 14:21:00,
2013-02-06 09:26:00,21.0,15.8,29.97,NW,315,0.0,0.0,80,0.00,,---,0.00,VWS V14.01,2013-02-06 14:26:00,
2013-02-06 09:31:00,21.0,15.8,29.97,West,270,0.0,0.0,80,0.00,,---,0.00,VWS V14.01,2013-02-06 14:31:00,
2013-02-06 09:36:00,21.0,15.8,29.98,WSW,248,0.0,0.0,80,0.00,,---,0.00,VWS V14.01,2013-02-06 14:36:00,
2013-02-06 09:41:00,21.0,15.8,29.99,SE,135,0.0,0.0,80,0.00,,---,0.00,VWS V14.01,2013-02-06 14:41:00,
2013-02-06 09:46:00,21.0,15.5,29.98,NNW,338,0.0,0.0,79,0.00,,---,0.00,VWS V14.01,2013-02-06 14:46:00,
2013-02-06 09:51:00,21.0,15.5,29.99,NNW,338,0.0,0.0,79,0.00,,---,0.00,VWS V14.01,2013-02-06 14:51:00,
2013-02-06 09:56:00,21.0,15.8,29.98,NNW,338,1.5,1.5,80,0.00,,---,0.00,VWS V14.01,2013-02-06 14:56:00,
2013-02-06 10:01:00,21.0,15.5,29.99,NW,315,3.3,3.3,79,0.00,,---,0.00,VWS V14.01,2013-02-06 15:01:00,
2013-02-06 10:06:00,20.8,15.3,29.99,North,0,0.0,0.0,79,0.00,,---,0.00,VWS V14.01,2013-02-06 15:06:00,
2013-02-06 10:12:00,20.8,15.3,29.99,WNW,292,0.0,6.0,79,0.00,,---,0.00,VWS V14.01,2013-02-06 15:12:00,
2013-02-06 10:17:00,20.8,15.3,29.99,NW,315,0.0,0.0,79,0.00,,---,0.00,VWS V14.01,2013-02-06 15:17:00,
2013-02-06 10:22:00,20.8,15.3,30.00,ENE,68,0.0,0.0,79,0.00,,---,0.00,VWS V14.01,2013-02-06 15:22:00,
2013-02-06 10:27:00,21.0,15.5,30.00,NW,315,0.0,0.0,79,0.00,,---,0.00,VWS V14.01,2013-02-06 15:27:00,
2013-02-06 10:32:00,21.0,15.5,30.01,WNW,292,0.0,0.0,79,0.00,,---,0.00,VWS V14.01,2013-02-06 15:32:00,
2013-02-06 10:37:00,21.0,15.5,30.01,SE,135,0.0,0.0,79,0.00,,---,0.00,VWS V14.01,2013-02-06 15:37:00,
2013-02-06 10:42:00,21.0,15.5,30.02,NW,315,0.0,0.0,79,0.00,,---,0.00,VWS V14.01,2013-02-06 15:42:00,
2013-02-06 10:47:00,21.0,15.5,30.02,ENE,68,0.0,0.0,79,0.00,,---,0.00,VWS V14.01,2013-02-06 15:47:00,
2013-02-06 10:52:00,20.8,15.0,30.02,North,0,0.0,0.0,78,0.00,,---,0.00,VWS V14.01,2013-02-06 15:52:00,
2013-02-06 10:57:00,20.8,15.0,30.02,NW,315,0.4,0.4,78,0.00,,---,0.00,VWS V14.01,2013-02-06 15:57:00,
2013-02-06 11:02:00,20.8,14.7,30.02,North,0,0.0,0.0,77,0.00,,---,0.00,VWS V14.01,2013-02-06 16:02:00,
2013-02-06 11:07:00,20.8,14.7,30.02,NW,315,0.0,0.0,77,0.00,,---,0.00,VWS V14.01,2013-02-06 16:07:00,
2013-02-06 11:12:00,20.8,14.4,30.03,NW,315,0.0,0.0,76,0.00,,---,0.00,VWS V14.01,2013-02-06 16:12:00,
2013-02-06 11:17:00,20.8,14.4,30.03,East,90,0.0,0.0,76,0.00,,---,0.00,VWS V14.01,2013-02-06 16:17:00,
2013-02-06 11:22:00,20.8,14.4,30.03,SE,135,0.0,0.0,76,0.00,,---,0.00,VWS V14.01,2013-02-06 16:22:00,
2013-02-06 11:27:00,20.8,14.4,30.03,West,270,0.0,0.0,76,0.00,,---,0.00,VWS V14.01,2013-02-06 16:27:00,
2013-02-06 11:32:00,21.0,14.6,30.03,NNW,338,0.0,0.0,76,0.00,,---,0.00,VWS V14.01,2013-02-06 16:32:00,
2013-02-06 11:38:00,21.0,14.6,30.04,NNW,338,0.0,0.0,76,0.00,,---,0.00,VWS V14.01,2013-02-06 16:38:00,
2013-02-06 11:43:00,21.0,14.6,30.03,NW,315,0.0,0.0,76,0.00,,---,0.00,VWS V14.01,2013-02-06 16:43:00,
2013-02-06 11:48:00,21.0,14.3,30.03,North,0,0.0,0.0,75,0.00,,---,0.00,VWS V14.01,2013-02-06 16:48:00,
2013-02-06 11:53:00,21.3,14.6,30.04,WSW,248,3.8,3.8,75,0.00,,---,0.00,VWS V14.01,2013-02-06 16:53:00,
2013-02-06 11:58:00,21.7,14.7,30.04,WNW,292,0.0,0.0,74,0.00,,---,0.00,VWS V14.01,2013-02-06 16:58:00,
2013-02-06 12:03:00,22.1,15.1,30.04,NNW,338,0.0,0.0,74,0.00,,---,0.00,VWS V14.01,2013-02-06 17:03:00,
2013-02-06 12:08:00,22.2,14.9,30.04,ESE,112,0.0,0.0,73,0.00,,---,0.00,VWS V14.01,2013-02-06 17:08:00,
2013-02-06 12:13:00,22.2,14.6,30.04,NW,315,0.0,0.0,72,0.00,,---,0.00,VWS V14.01,2013-02-06 17:13:00,
2013-02-06 12:18:00,22.1,14.1,30.04,WNW,292,0.0,0.0,71,0.00,,---,0.00,VWS V14.01,2013-02-06 17:18:00,
2013-02-06 12:23:00,21.9,13.6,30.04,NW,315,9.1,9.1,70,0.00,,---,0.00,VWS V14.01,2013-02-06 17:23:00,
2013-02-06 12:28:00,22.1,13.8,30.04,WSW,248,0.0,0.0,70,0.00,,---,0.00,VWS V14.01,2013-02-06 17:28:00,
2013-02-06 12:33:00,22.6,14.0,30.05,WSW,248,0.0,0.0,69,0.00,,---,0.00,VWS V14.01,2013-02-06 17:33:00,
2013-02-06 12:38:00,22.8,13.8,30.04,WSW,248,0.0,0.0,68,0.00,,---,0.00,VWS V14.01,2013-02-06 17:38:00,
2013-02-06 12:43:00,23.1,14.1,30.05,WSW,248,0.0,0.0,68,0.00,,---,0.00,VWS V14.01,2013-02-06 17:43:00,
2013-02-06 12:48:00,23.5,14.2,30.05,WSW,248,0.0,0.0,67,0.00,,---,0.00,VWS V14.01,2013-02-06 17:48:00,
2013-02-06 12:53:00,23.7,14.0,30.05,NW,315,0.0,0.0,66,0.00,,---,0.00,VWS V14.01,2013-02-06 17:53:00,
2013-02-06 12:58:00,23.7,14.0,30.05,NW,315,0.0,0.0,66,0.00,,---,0.00,VWS V14.01,2013-02-06 17:58:00,
2013-02-06 13:03:00,23.5,13.8,30.05,SSE,158,0.0,0.0,66,0.00,,---,0.00,VWS V14.01,2013-02-06 18:03:00,
2013-02-06 13:08:00,23.5,13.5,30.05,NNW,338,0.0,0.0,65,0.00,,---,0.00,VWS V14.01,2013-02-06 18:08:00,
2013-02-06 13:13:00,23.3,13.3,30.06,East,90,0.0,0.0,65,0.00,,---,0.00,VWS V14.01,2013-02-06 18:13:00,
2013-02-06 13:18:00,23.1,13.1,30.05,ENE,68,0.0,0.0,65,0.00,,---,0.00,VWS V14.01,2013-02-06 18:18:00,
2013-02-06 13:23:00,23.0,13.0,30.06,WNW,292,0.0,0.0,65,0.00,,---,0.00,VWS V14.01,2013-02-06 18:23:00,
2013-02-06 13:28:00,22.8,12.5,30.06,SSW,202,0.0,0.0,64,0.00,,---,0.00,VWS V14.01,2013-02-06 18:28:00,
2013-02-06 13:33:00,22.6,12.3,30.06,NNW,338,0.0,0.0,64,0.00,,---,0.00,VWS V14.01,2013-02-06 18:33:00,
2013-02-06 13:38:00,22.4,12.1,30.07,NW,315,0.0,0.0,64,0.00,,---,0.00,VWS V14.01,2013-02-06 18:38:00,
2013-02-06 13:43:00,22.4,12.1,30.07,SSE,158,0.0,0.0,64,0.00,,---,0.00,VWS V14.01,2013-02-06 18:43:00,
2013-02-06 13:48:00,22.6,12.3,30.07,WSW,248,0.0,0.0,64,0.00,,---,0.00,VWS V14.01,2013-02-06 18:48:00,
2013-02-06 13:53:00,22.6,11.9,30.07,NW,315,0.0,0.0,63,0.00,,---,0.00,VWS V14.01,2013-02-06 18:53:00,
2013-02-06 13:58:00,22.8,12.1,30.07,WSW,248,2.0,2.0,63,0.00,,---,0.00,VWS V14.01,2013-02-06 18:58:00,
2013-02-06 14:03:00,22.8,12.1,30.08,NW,315,3.8,3.8,63,0.00,,---,0.00,VWS V14.01,2013-02-06 19:03:00,
2013-02-06 14:08:00,22.4,11.7,30.08,NNW,338,0.0,0.0,63,0.00,,---,0.00,VWS V14.01,2013-02-06 19:08:00,
2013-02-06 14:13:00,22.1,11.8,30.08,ENE,68,0.0,0.0,64,0.00,,---,0.00,VWS V14.01,2013-02-06 19:13:00,
2013-02-06 14:18:00,22.1,12.1,30.08,NNW,338,1.5,1.5,65,0.00,,---,0.00,VWS V14.01,2013-02-06 19:18:00,
2013-02-06 14:23:00,21.9,12.0,30.09,NNW,338,0.0,0.0,65,0.00,,---,0.00,VWS V14.01,2013-02-06 19:23:00,
2013-02-06 14:28:00,21.7,11.8,30.09,NW,315,0.0,0.0,65,0.00,,---,0.00,VWS V14.01,2013-02-06 19:28:00,
2013-02-06 14:33:00,21.5,11.6,30.09,WSW,248,0.0,0.0,65,0.00,,---,0.00,VWS V14.01,2013-02-06 19:33:00,
2013-02-06 14:38:00,21.5,11.2,30.09,WSW,248,0.0,0.0,64,0.00,,---,0.00,VWS V14.01,2013-02-06 19:38:00,
2013-02-06 14:43:00,21.9,12.0,30.10,SSW,202,0.0,0.0,65,0.00,,---,0.00,VWS V14.01,2013-02-06 19:43:00,
2013-02-06 14:48:00,22.1,12.1,30.10,ENE,68,0.0,0.0,65,0.00,,---,0.00,VWS V14.01,2013-02-06 19:48:00,
2013-02-06 14:53:00,22.2,12.2,30.11,West,270,0.0,0.0,65,0.00,,---,0.00,VWS V14.01,2013-02-06 19:53:00,
2013-02-06 14:58:00,22.2,12.2,30.11,NNW,338,0.0,0.0,65,0.00,,---,0.00,VWS V14.01,2013-02-06 19:58:00,
2013-02-06 15:03:00,22.2,12.2,30.11,East,90,0.0,0.0,65,0.00,,---,0.00,VWS V14.01,2013-02-06 20:03:00,
2013-02-06 15:08:00,22.1,12.1,30.12,WSW,248,0.0,0.0,65,0.00,,---,0.00,VWS V14.01,2013-02-06 20:08:00,
2013-02-06 15:13:00,22.2,12.2,30.12,ENE,68,0.0,0.0,65,0.00,,---,0.00,VWS V14.01,2013-02-06 20:13:00,
2013-02-06 15:18:00,22.2,12.2,30.12,NE,45,0.0,0.0,65,0.00,,---,0.00,VWS V14.01,2013-02-06 20:18:00,
2013-02-06 15:23:00,22.6,12.6,30.12,WSW,248,0.0,0.0,65,0.00,,---,0.00,VWS V14.01,2013-02-06 20:23:00,
2013-02-06 15:28:00,22.8,12.8,30.13,WSW,248,0.0,0.0,65,0.00,,---,0.00,VWS V14.01,2013-02-06 20:28:00,
2013-02-06 15:33:00,23.0,13.0,30.13,SE,135,0.0,0.0,65,0.00,,---,0.00,VWS V14.01,2013-02-06 20:33:00,
2013-02-06 15:38:00,22.8,12.5,30.13,NNW,338,0.0,0.0,64,0.00,,---,0.00,VWS V14.01,2013-02-06 20:38:00,
2013-02-06 15:43:00,22.2,11.9,30.14,North,0,0.0,0.0,64,0.00,,---,0.00,VWS V14.01,2013-02-06 20:43:00,
2013-02-06 15:48:00,21.9,11.6,30.14,WSW,248,0.0,0.0,64,0.00,,---,0.00,VWS V14.01,2013-02-06 20:48:00,
2013-02-06 15:53:00,21.7,11.4,30.14,NNW,338,0.0,0.0,64,0.00,,---,0.00,VWS V14.01,2013-02-06 20:53:00,
2013-02-06 15:58:00,21.3,11.0,30.15,NNE,22,0.0,0.0,64,0.00,,---,0.00,VWS V14.01,2013-02-06 20:58:00,
2013-02-06 16:03:00,21.0,10.8,30.15,ENE,68,0.0,0.0,64,0.00,,---,0.00,VWS V14.01,2013-02-06 21:03:00,
2013-02-06 16:08:00,20.8,10.6,30.15,NE,45,0.0,0.0,64,0.00,,---,0.00,VWS V14.01,2013-02-06 21:08:00,
2013-02-06 16:13:00,20.6,10.4,30.15,ENE,68,0.0,0.0,64,0.00,,---,0.00,VWS V14.01,2013-02-06 21:13:00,
2013-02-06 16:18:00,20.4,10.2,30.15,WSW,248,0.0,0.0,64,0.00,,---,0.00,VWS V14.01,2013-02-06 21:18:00,
2013-02-06 16:23:00,20.4,10.5,30.16,WSW,248,0.0,0.0,65,0.00,,---,0.00,VWS V14.01,2013-02-06 21:23:00,
2013-02-06 16:28:00,20.3,10.4,30.16,WSW,248,0.0,0.0,65,0.00,,---,0.00,VWS V14.01,2013-02-06 21:28:00,
2013-02-06 16:33:00,20.3,10.4,30.16,WSW,248,2.2,2.2,65,0.00,,---,0.00,VWS V14.01,2013-02-06 21:33:00,
2013-02-06 16:38:00,20.3,10.1,30.16,WSW,248,0.0,0.0,64,0.00,,---,0.00,VWS V14.01,2013-02-06 21:38:00,
2013-02-06 16:43:00,20.1,9.9,30.17,WSW,248,1.3,1.3,64,0.00,,---,0.00,VWS V14.01,2013-02-06 21:43:00,
2013-02-06 16:48:00,19.9,9.7,30.17,WSW,248,0.0,0.0,64,0.00,,---,0.00,VWS V14.01,2013-02-06 21:48:00,
2013-02-06 16:53:00,19.9,9.7,30.17,NW,315,0.0,0.0,64,0.00,,---,0.00,VWS V14.01,2013-02-06 21:53:00,
2013-02-06 16:58:00,19.5,9.3,30.18,NNE,22,0.0,0.0,64,0.00,,---,0.00,VWS V14.01,2013-02-06 21:58:00,
2013-02-06 17:03:00,19.2,8.7,30.18,NE,45,0.0,0.0,63,0.00,,---,0.00,VWS V14.01,2013-02-06 22:03:00,
2013-02-06 17:08:00,18.8,8.3,30.18,NE,45,0.0,0.0,63,0.00,,---,0.00,VWS V14.01,2013-02-06 22:08:00,
2013-02-06 17:13:00,18.6,8.5,30.18,NE,45,0.0,0.0,64,0.00,,---,0.00,VWS V14.01,2013-02-06 22:13:00,
2013-02-06 17:18:00,18.5,8.4,30.19,NE,45,0.0,0.0,64,0.00,,---,0.00,VWS V14.01,2013-02-06 22:18:00,
2013-02-06 17:23:00,18.3,8.2,30.19,NE,45,0.0,0.0,64,0.00,,---,0.00,VWS V14.01,2013-02-06 22:23:00,
2013-02-06 17:28:00,18.1,8.0,30.20,NE,45,0.0,0.0,64,0.00,,---,0.00,VWS V14.01,2013-02-06 22:28:00,
2013-02-06 17:33:00,17.9,7.8,30.20,NE,45,0.0,0.0,64,0.00,,---,0.00,VWS V14.01,2013-02-06 22:33:00,
2013-02-06 17:38:00,17.6,7.5,30.20,NE,45,0.0,0.0,64,0.00,,---,0.00,VWS V14.01,2013-02-06 22:38:00,
2013-02-06 17:43:00,17.4,7.3,30.21,NE,45,0.0,0.0,64,0.00,,---,0.00,VWS V14.01,2013-02-06 22:43:00,
2013-02-06 17:48:00,17.0,6.9,30.21,NE,45,0.0,0.0,64,0.00,,---,0.00,VWS V14.01,2013-02-06 22:48:00,
2013-02-06 17:53:00,16.8,6.8,30.22,NNE,22,0.0,0.0,64,0.00,,---,0.00,VWS V14.01,2013-02-06 22:53:00,
2013-02-06 17:58:00,16.5,6.1,30.22,NNW,338,0.0,0.0,63,0.00,,---,0.00,VWS V14.01,2013-02-06 22:58:00,
2013-02-06 18:03:00,15.9,5.2,30.22,North,0,0.0,0.0,62,0.00,,---,0.00,VWS V14.01,2013-02-06 23:03:00,
2013-02-06 18:08:00,15.6,4.6,30.22,NW,315,0.0,0.0,61,0.00,,---,0.00,VWS V14.01,2013-02-06 23:08:00,
2013-02-06 18:13:00,15.2,4.2,30.22,West,270,0.0,0.0,61,0.00,,---,0.00,VWS V14.01,2013-02-06 23:13:00,
2013-02-06 18:18:00,14.9,3.5,30.23,NNW,338,0.0,0.0,60,0.00,,---,0.00,VWS V14.01,2013-02-06 23:18:00,
2013-02-06 18:23:00,14.7,3.3,30.22,NNW,338,0.0,0.0,60,0.00,,---,0.00,VWS V14.01,2013-02-06 23:23:00,
2013-02-06 18:28:00,14.5,3.2,30.23,NW,315,0.0,0.0,60,0.00,,---,0.00,VWS V14.01,2013-02-06 23:28:00,
2013-02-06 18:33:00,14.3,3.0,30.23,NNW,338,0.0,0.0,60,0.00,,---,0.00,VWS V14.01,2013-02-06 23:33:00,
2013-02-06 18:38:00,14.1,2.4,30.23,NNW,338,0.0,0.0,59,0.00,,---,0.00,VWS V14.01,2013-02-06 23:38:00,
2013-02-06 18:43:00,13.8,2.1,30.24,NW,315,2.9,2.9,59,0.00,,---,0.00,VWS V14.01,2013-02-06 23:43:00,
2013-02-06 18:48:00,13.8,2.1,30.24,NNW,338,0.0,0.0,59,0.00,,---,0.00,VWS V14.01,2013-02-06 23:48:00,
2013-02-06 18:53:00,13.6,2.0,30.24,West,270,0.0,0.0,59,0.00,,---,0.00,VWS V14.01,2013-02-06 23:53:00,
2013-02-06 18:58:00,13.2,1.6,30.25,West,270,0.0,0.0,59,0.00,,---,0.00,VWS V14.01,2013-02-06 23:58:00,
2013-02-06 19:03:00,13.2,1.6,30.25,NW,315,0.0,0.0,59,0.00,,---,0.00,VWS V14.01,2013-02-07 00:03:00,
2013-02-06 19:08:00,12.9,0.9,30.25,NNW,338,0.0,0.0,58,0.00,,---,0.00,VWS V14.01,2013-02-07 00:08:00,
2013-02-06 19:13:00,12.7,0.7,30.25,NW,315,0.0,0.0,58,0.00,,---,0.00,VWS V14.01,2013-02-07 00:13:00,
2013-02-06 19:18:00,12.7,0.7,30.25,WNW,292,0.0,0.0,58,0.00,,---,0.00,VWS V14.01,2013-02-07 00:18:00,
2013-02-06 19:23:00,12.5,0.9,30.25,NW,315,0.0,0.0,59,0.00,,---,0.00,VWS V14.01,2013-02-07 00:23:00,
2013-02-06 19:28:00,12.5,0.9,30.25,WNW,292,0.0,0.0,59,0.00,,---,0.00,VWS V14.01,2013-02-07 00:28:00,
2013-02-06 19:33:00,12.3,0.7,30.25,WNW,292,0.0,0.0,59,0.00,,---,0.00,VWS V14.01,2013-02-07 00:33:00,
2013-02-06 19:38:00,12.3,0.7,30.26,WNW,292,0.0,0.0,59,0.00,,---,0.00,VWS V14.01,2013-02-07 00:38:00,
2013-02-06 19:44:00,12.2,0.6,30.26,NW,315,0.0,0.0,59,0.00,,---,0.00,VWS V14.01,2013-02-07 00:44:00,
2013-02-06 19:49:00,12.0,0.8,30.26,NW,315,0.0,0.0,60,0.00,,---,0.00,VWS V14.01,2013-02-07 00:49:00,
2013-02-06 19:54:00,12.0,0.8,30.26,NW,315,0.0,0.0,60,0.00,,---,0.00,VWS V14.01,2013-02-07 00:54:00,
2013-02-06 19:59:00,12.0,0.8,30.26,NNW,338,0.0,0.0,60,0.00,,---,0.00,VWS V14.01,2013-02-07 00:59:00,
2013-02-06 20:04:00,12.0,0.8,30.26,WNW,292,0.0,0.0,60,0.00,,---,0.00,VWS V14.01,2013-02-07 01:04:00,
2013-02-06 20:09:00,12.0,0.8,30.27,NNW,338,0.0,0.0,60,0.00,,---,0.00,VWS V14.01,2013-02-07 01:09:00,
2013-02-06 20:14:00,11.8,0.6,30.27,WNW,292,0.0,0.0,60,0.00,,---,0.00,VWS V14.01,2013-02-07 01:14:00,
2013-02-06 20:19:00,11.8,0.6,30.27,WNW,292,0.0,0.0,60,0.00,,---,0.00,VWS V14.01,2013-02-07 01:19:00,
2013-02-06 20:24:00,11.8,0.6,30.27,NW,315,0.0,0.0,60,0.00,,---,0.00,VWS V14.01,2013-02-07 01:24:00,
2013-02-06 20:29:00,11.6,0.4,30.28,West,270,0.0,0.0,60,0.00,,---,0.00,VWS V14.01,2013-02-07 01:29:00,
2013-02-06 20:34:00,11.6,0.8,30.28,WNW,292,0.0,0.0,61,0.00,,---,0.00,VWS V14.01,2013-02-07 01:34:00,
2013-02-06 20:39:00,11.4,0.6,30.28,WNW,292,0.0,0.0,61,0.00,,---,0.00,VWS V14.01,2013-02-07 01:39:00,
2013-02-06 20:44:00,11.4,0.6,30.28,WNW,292,0.0,0.0,61,0.00,,---,0.00,VWS V14.01,2013-02-07 01:44:00,
2013-02-06 20:49:00,11.4,0.6,30.28,WNW,292,0.0,0.0,61,0.00,,---,0.00,VWS V14.01,2013-02-07 01:49:00,
2013-02-06 20:54:00,11.4,0.6,30.29,WNW,292,0.0,0.0,61,0.00,,---,0.00,VWS V14.01,2013-02-07 01:54:00,
2013-02-06 20:59:00,11.3,0.5,30.28,WNW,292,0.0,0.0,61,0.00,,---,0.00,VWS V14.01,2013-02-07 01:59:00,
2013-02-06 21:04:00,11.3,0.5,30.28,WNW,292,0.0,0.0,61,0.00,,---,0.00,VWS V14.01,2013-02-07 02:04:00,
2013-02-06 21:09:00,11.3,0.8,30.28,WNW,292,0.0,0.0,62,0.00,,---,0.00,VWS V14.01,2013-02-07 02:09:00,
2013-02-06 21:14:00,11.3,0.8,30.28,WNW,292,0.0,0.0,62,0.00,,---,0.00,VWS V14.01,2013-02-07 02:14:00,
2013-02-06 21:19:00,11.3,0.8,30.28,WNW,292,0.0,0.0,62,0.00,,---,0.00,VWS V14.01,2013-02-07 02:19:00,
2013-02-06 21:24:00,11.1,0.6,30.29,WNW,292,0.0,0.0,62,0.00,,---,0.00,VWS V14.01,2013-02-07 02:24:00,
2013-02-06 21:29:00,10.9,0.4,30.30,WNW,292,0.0,0.0,62,0.00,,---,0.00,VWS V14.01,2013-02-07 02:29:00,
2013-02-06 21:34:00,10.7,0.3,30.30,North,0,0.0,0.0,62,0.00,,---,0.00,VWS V14.01,2013-02-07 02:34:00,
2013-02-06 21:39:00,10.5,0.1,30.30,North,0,0.0,0.0,62,0.00,,---,0.00,VWS V14.01,2013-02-07 02:39:00,
2013-02-06 21:44:00,10.5,0.1,30.30,North,0,0.0,0.0,62,0.00,,---,0.00,VWS V14.01,2013-02-07 02:44:00,
2013-02-06 21:49:00,10.5,0.1,30.30,North,0,0.0,0.0,62,0.00,,---,0.00,VWS V14.01,2013-02-07 02:49:00,
2013-02-06 21:54:00,10.2,-0.2,30.30,North,0,0.0,0.0,62,0.00,,---,0.00,VWS V14.01,2013-02-07 02:54:00,
2013-02-06 21:59:00,10.2,0.1,30.30,North,0,0.0,0.0,63,0.00,,---,0.00,VWS V14.01,2013-02-07 02:59:00,
2013-02-06 22:04:00,10.2,0.1,30.30,North,0,0.0,0.0,63,0.00,,---,0.00,VWS V14.01,2013-02-07 03:04:00,
2013-02-06 22:09:00,10.0,-0.1,30.31,North,0,0.0,0.0,63,0.00,,---,0.00,VWS V14.01,2013-02-07 03:09:00,
2013-02-06 22:14:00,9.6,-0.4,30.31,North,0,0.0,0.0,63,0.00,,---,0.00,VWS V14.01,2013-02-07 03:14:00,
2013-02-06 22:19:00,9.6,-0.4,30.32,North,0,0.0,0.0,63,0.00,,---,0.00,VWS V14.01,2013-02-07 03:19:00,
2013-02-06 22:24:00,9.5,-0.5,30.31,North,0,0.0,0.0,63,0.00,,---,0.00,VWS V14.01,2013-02-07 03:24:00,
2013-02-06 22:29:00,9.3,-0.7,30.31,North,0,0.0,0.0,63,0.00,,---,0.00,VWS V14.01,2013-02-07 03:29:00,
2013-02-06 22:34:00,9.3,-0.7,30.31,North,0,0.0,0.0,63,0.00,,---,0.00,VWS V14.01,2013-02-07 03:34:00,
2013-02-06 22:39:00,9.1,-0.9,30.31,North,0,0.0,0.0,63,0.00,,---,0.00,VWS V14.01,2013-02-07 03:39:00,
2013-02-06 22:44:00,9.1,-0.6,30.31,North,0,0.0,0.0,64,0.00,,---,0.00,VWS V14.01,2013-02-07 03:44:00,
2013-02-06 22:49:00,8.9,-0.8,30.31,North,0,0.0,0.0,64,0.00,,---,0.00,VWS V14.01,2013-02-07 03:49:00,
2013-02-06 22:54:00,8.7,-1.0,30.31,North,0,0.0,0.0,64,0.00,,---,0.00,VWS V14.01,2013-02-07 03:54:00,
2013-02-06 22:59:00,8.7,-1.0,30.31,North,0,0.0,0.0,64,0.00,,---,0.00,VWS V14.01,2013-02-07 03:59:00,
2013-02-06 23:04:00,8.6,-1.1,30.31,North,0,0.0,0.0,64,0.00,,---,0.00,VWS V14.01,2013-02-07 04:04:00,
2013-02-06 23:09:00,8.4,-1.3,30.31,North,0,0.0,0.0,64,0.00,,---,0.00,VWS V14.01,2013-02-07 04:09:00,
2013-02-06 23:14:00,8.4,-1.3,30.31,North,0,0.0,0.0,64,0.00,,---,0.00,VWS V14.01,2013-02-07 04:14:00,
2013-02-06 23:19:00,8.2,-1.5,30.32,North,0,0.0,0.0,64,0.00,,---,0.00,VWS V14.01,2013-02-07 04:19:00,
2013-02-06 23:24:00,8.0,-1.3,30.32,North,0,0.0,0.0,65,0.00,,---,0.00,VWS V14.01,2013-02-07 04:24:00,
2013-02-06 23:29:00,7.8,-1.5,30.32,North,0,0.0,0.0,65,0.00,,---,0.00,VWS V14.01,2013-02-07 04:29:00,
2013-02-06 23:34:00,7.7,-1.6,30.32,North,0,0.0,0.0,65,0.00,,---,0.00,VWS V14.01,2013-02-07 04:34:00,
2013-02-06 23:39:00,7.5,-1.8,30.33,North,0,0.0,0.0,65,0.00,,---,0.00,VWS V14.01,2013-02-07 04:39:00,
2013-02-06 23:44:00,7.3,-2.0,30.33,North,0,0.0,0.0,65,0.00,,---,0.00,VWS V14.01,2013-02-07 04:44:00,
2013-02-06 23:49:00,7.1,-2.2,30.32,North,0,0.0,0.0,65,0.00,,---,0.00,VWS V14.01,2013-02-07 04:49:00,
2013-02-06 23:54:00,6.9,-2.4,30.33,North,0,0.0,0.0,65,0.00,,---,0.00,VWS V14.01,2013-02-07 04:54:00,
2013-02-06 23:59:00,6.9,-2.4,30.32,North,0,0.0,0.0,65,0.00,,---,0.00,VWS V14.01,2013-02-07 04:59:00,